createdAt,value
2023-08-12T00:00:34.411Z,1014.76
2023-08-12T00:01:34.482Z,1014.75
2023-08-12T00:02:34.478Z,1014.78
2023-08-12T00:03:34.528Z,1014.79
2023-08-12T00:04:34.489Z,1014.81
2023-08-12T00:05:34.510Z,1014.80
2023-08-12T00:06:34.529Z,1014.79
2023-08-12T00:07:34.554Z,1014.80
2023-08-12T00:08:34.586Z,1014.77
2023-08-12T00:09:34.592Z,1014.83
2023-08-12T00:10:34.611Z,1014.81
2023-08-12T00:11:34.632Z,1014.79
2023-08-12T00:12:34.650Z,1014.78
2023-08-12T00:13:34.668Z,1014.76
2023-08-12T00:14:34.695Z,1014.79
2023-08-12T00:15:34.745Z,1014.81
2023-08-12T00:16:34.730Z,1014.79
2023-08-12T00:17:34.789Z,1014.79
2023-08-12T00:18:34.769Z,1014.76
2023-08-12T00:19:34.791Z,1014.78
2023-08-12T00:20:34.816Z,1014.78
2023-08-12T00:21:34.829Z,1014.76
2023-08-12T00:22:34.881Z,1014.82
2023-08-12T00:23:34.871Z,1014.77
2023-08-12T00:24:34.900Z,1014.80
2023-08-12T00:25:34.908Z,1014.81
2023-08-12T00:26:34.925Z,1014.79
2023-08-12T00:27:34.961Z,1014.74
2023-08-12T00:28:34.968Z,1014.75
2023-08-12T00:29:34.986Z,1014.76
2023-08-12T00:30:35.007Z,1014.69
2023-08-12T00:31:35.118Z,1014.70
2023-08-12T00:32:35.060Z,1014.70
2023-08-12T00:33:35.062Z,1014.71
2023-08-12T00:34:35.082Z,1014.68
2023-08-12T00:35:35.102Z,1014.72
2023-08-12T00:36:35.233Z,1014.70
2023-08-12T00:37:35.145Z,1014.67
2023-08-12T00:38:35.161Z,1014.62
2023-08-12T00:39:35.182Z,1014.68
2023-08-12T00:40:35.206Z,1014.62
2023-08-12T00:41:35.225Z,1014.61
2023-08-12T00:42:35.247Z,1014.64
2023-08-12T00:43:35.259Z,1014.62
2023-08-12T00:44:35.280Z,1014.59
2023-08-12T00:45:35.301Z,1014.59
2023-08-12T00:46:35.336Z,1014.58
2023-08-12T00:47:35.425Z,1014.56
2023-08-12T00:48:35.356Z,1014.49
2023-08-12T00:49:35.376Z,1014.49
2023-08-12T00:50:35.394Z,1014.52
2023-08-12T00:51:35.424Z,1014.48
2023-08-12T00:52:35.440Z,1014.50
2023-08-12T00:53:35.459Z,1014.47
2023-08-12T00:54:35.487Z,1014.44
2023-08-12T00:55:35.497Z,1014.43
2023-08-12T00:56:35.521Z,1014.39
2023-08-12T00:57:35.541Z,1014.42
2023-08-12T00:58:35.552Z,1014.45
2023-08-12T00:59:35.573Z,1014.41
2023-08-12T01:00:35.637Z,1014.36
2023-08-12T01:01:35.613Z,1014.36
2023-08-12T01:02:35.813Z,1014.31
2023-08-12T01:03:35.703Z,1014.31
2023-08-12T01:04:35.670Z,1014.27
2023-08-12T01:05:37.315Z,1014.27
2023-08-12T01:06:35.710Z,1014.27
2023-08-12T01:07:35.732Z,1014.25
2023-08-12T01:08:35.752Z,1014.22
2023-08-12T01:09:35.770Z,1014.22
2023-08-12T01:10:35.803Z,1014.24
2023-08-12T01:11:35.811Z,1014.20
2023-08-12T01:12:35.829Z,1014.20
2023-08-12T01:13:35.849Z,1014.17
2023-08-12T01:14:35.868Z,1014.14
2023-08-12T01:15:35.892Z,1014.12
2023-08-12T01:16:35.927Z,1014.13
2023-08-12T01:17:35.945Z,1014.12
2023-08-12T01:18:35.968Z,1014.14
2023-08-12T01:19:35.977Z,1014.17
2023-08-12T01:20:36.007Z,1014.14
2023-08-12T01:21:36.016Z,1014.16
2023-08-12T01:22:36.024Z,1014.12
2023-08-12T01:23:36.073Z,1014.15
2023-08-12T01:24:36.076Z,1014.20
2023-08-12T01:25:36.086Z,1014.20
2023-08-12T01:26:36.102Z,1014.21
2023-08-12T01:27:36.123Z,1014.16
2023-08-12T01:28:36.146Z,1014.18
2023-08-12T01:29:36.173Z,1014.19
2023-08-12T01:30:36.197Z,1014.14
2023-08-12T01:31:36.202Z,1014.12
2023-08-12T01:32:36.263Z,1014.10
2023-08-12T01:33:36.244Z,1014.08
2023-08-12T01:34:36.258Z,1014.05
2023-08-12T01:35:36.284Z,1014.03
2023-08-12T01:36:36.299Z,1014.02
2023-08-12T01:37:36.317Z,1014.00
2023-08-12T01:38:36.334Z,1014.00
2023-08-12T01:39:36.367Z,1014.00
2023-08-12T01:40:36.379Z,1013.97
2023-08-12T01:41:36.397Z,1013.99
2023-08-12T01:42:36.412Z,1013.98
2023-08-12T01:43:36.432Z,1013.97
2023-08-12T01:44:36.455Z,1014.03
2023-08-12T01:45:36.485Z,1014.01
2023-08-12T01:46:36.514Z,1013.96
2023-08-12T01:47:36.549Z,1013.98
2023-08-12T01:48:36.539Z,1013.99
2023-08-12T01:49:36.552Z,1013.95
2023-08-12T01:50:36.624Z,1013.96
2023-08-12T01:51:36.590Z,1013.94
2023-08-12T01:52:36.607Z,1013.92
2023-08-12T01:53:36.626Z,1013.94
2023-08-12T01:54:36.646Z,1013.90
2023-08-12T01:55:36.665Z,1013.92
2023-08-12T01:56:36.684Z,1013.88
2023-08-12T01:57:36.703Z,1013.88
2023-08-12T01:58:36.723Z,1013.84
2023-08-12T01:59:36.753Z,1013.87
2023-08-12T02:00:36.766Z,1013.85
2023-08-12T02:01:36.814Z,1013.82
2023-08-12T02:02:36.873Z,1013.81
2023-08-12T02:03:36.854Z,1013.81
2023-08-12T02:04:36.839Z,1013.83
2023-08-12T02:05:36.884Z,1013.82
2023-08-12T02:06:36.880Z,1013.79
2023-08-12T02:07:36.903Z,1013.75
2023-08-12T02:08:36.937Z,1013.71
2023-08-12T02:09:36.939Z,1013.73
2023-08-12T02:10:36.967Z,1013.73
2023-08-12T02:11:36.973Z,1013.66
2023-08-12T02:12:36.990Z,1013.71
2023-08-12T02:13:37.019Z,1013.67
2023-08-12T02:14:37.033Z,1013.63
2023-08-12T02:15:37.051Z,1013.65
2023-08-12T02:16:37.077Z,1013.68
2023-08-12T02:17:37.106Z,1013.67
2023-08-12T02:18:37.110Z,1013.65
2023-08-12T02:19:37.130Z,1013.67
2023-08-12T02:20:37.149Z,1013.64
2023-08-12T02:21:37.184Z,1013.64
2023-08-12T02:22:37.186Z,1013.66
2023-08-12T02:23:37.213Z,1013.64
2023-08-12T02:24:37.234Z,1013.61
2023-08-12T02:25:37.247Z,1013.60
2023-08-12T02:26:37.266Z,1013.57
2023-08-12T02:27:37.288Z,1013.52
2023-08-12T02:28:37.304Z,1013.52
2023-08-12T02:29:37.325Z,1013.52
2023-08-12T02:30:37.350Z,1013.51
2023-08-12T02:31:37.423Z,1013.49
2023-08-12T02:32:37.470Z,1013.51
2023-08-12T02:33:37.401Z,1013.48
2023-08-12T02:34:37.438Z,1013.49
2023-08-12T02:35:37.446Z,1013.45
2023-08-12T02:36:37.475Z,1013.46
2023-08-12T02:37:37.479Z,1013.45
2023-08-12T02:38:37.509Z,1013.45
2023-08-12T02:39:37.517Z,1013.41
2023-08-12T02:40:37.540Z,1013.47
2023-08-12T02:41:37.559Z,1013.44
2023-08-12T02:42:37.583Z,1013.46
2023-08-12T02:43:37.597Z,1013.42
2023-08-12T02:44:37.630Z,1013.45
2023-08-12T02:45:37.689Z,1013.46
2023-08-12T02:46:37.674Z,1013.42
2023-08-12T02:47:37.716Z,1013.36
2023-08-12T02:48:37.706Z,1013.36
2023-08-12T02:49:37.718Z,1013.38
2023-08-12T02:50:37.732Z,1013.34
2023-08-12T02:51:37.753Z,1013.36
2023-08-12T02:52:37.772Z,1013.36
2023-08-12T02:53:37.793Z,1013.33
2023-08-12T02:54:37.817Z,1013.31
2023-08-12T02:55:37.834Z,1013.33
2023-08-12T02:56:37.853Z,1013.31
2023-08-12T02:57:37.870Z,1013.30
2023-08-12T02:58:37.965Z,1013.33
2023-08-12T02:59:37.915Z,1013.32
2023-08-12T03:00:37.935Z,1013.33
2023-08-12T03:01:37.966Z,1013.32
2023-08-12T03:02:38.007Z,1013.31
2023-08-12T03:03:38.006Z,1013.31
2023-08-12T03:04:38.002Z,1013.32
2023-08-12T03:05:38.030Z,1013.32
2023-08-12T03:06:38.048Z,1013.30
2023-08-12T03:07:38.064Z,1013.29
2023-08-12T03:08:38.099Z,1013.30
2023-08-12T03:09:38.105Z,1013.31
2023-08-12T03:10:38.128Z,1013.29
2023-08-12T03:11:38.178Z,1013.26
2023-08-12T03:12:38.162Z,1013.27
2023-08-12T03:13:38.184Z,1013.22
2023-08-12T03:14:38.201Z,1013.24
2023-08-12T03:15:38.248Z,1013.22
2023-08-12T03:16:38.241Z,1013.21
2023-08-12T03:17:38.415Z,1013.23
2023-08-12T03:18:38.280Z,1013.23
2023-08-12T03:19:38.308Z,1013.24
2023-08-12T03:20:38.328Z,1013.25
2023-08-12T03:21:38.337Z,1013.24
2023-08-12T03:22:38.357Z,1013.21
2023-08-12T03:23:38.384Z,1013.23
2023-08-12T03:24:38.401Z,1013.18
2023-08-12T03:25:38.415Z,1013.13
2023-08-12T03:26:38.442Z,1013.12
2023-08-12T03:27:38.461Z,1013.08
2023-08-12T03:28:38.490Z,1013.05
2023-08-12T03:29:38.495Z,1013.05
2023-08-12T03:30:38.515Z,1013.01
2023-08-12T03:31:38.568Z,1013.02
2023-08-12T03:32:38.620Z,1012.96
2023-08-12T03:33:38.578Z,1012.96
2023-08-12T03:34:38.611Z,1012.94
2023-08-12T03:35:38.612Z,1012.95
2023-08-12T03:36:38.637Z,1012.93
2023-08-12T03:37:38.653Z,1012.93
2023-08-12T03:38:38.675Z,1012.98
2023-08-12T03:39:38.690Z,1013.02
2023-08-12T03:40:38.709Z,1013.03
2023-08-12T03:41:38.728Z,1013.03
2023-08-12T03:42:38.770Z,1013.05
2023-08-12T03:43:38.800Z,1013.03
2023-08-12T03:44:38.785Z,1013.05
2023-08-12T03:45:38.806Z,1013.04
2023-08-12T03:46:38.876Z,1012.98
2023-08-12T03:47:38.949Z,1012.98
2023-08-12T03:48:38.862Z,1012.99
2023-08-12T03:49:38.887Z,1012.98
2023-08-12T03:50:38.902Z,1012.94
2023-08-12T03:51:38.921Z,1012.94
2023-08-12T03:52:38.944Z,1012.95
2023-08-12T03:53:38.961Z,1012.93
2023-08-12T03:54:38.979Z,1012.91
2023-08-12T03:55:39.000Z,1012.92
2023-08-12T03:56:39.018Z,1012.88
2023-08-12T03:57:39.036Z,1012.86
2023-08-12T03:58:39.056Z,1012.85
2023-08-12T03:59:39.089Z,1012.84
2023-08-12T04:00:39.124Z,1012.85
2023-08-12T04:01:39.116Z,1012.80
2023-08-12T04:02:39.149Z,1012.80
2023-08-12T04:03:39.227Z,1012.80
2023-08-12T04:04:39.171Z,1012.84
2023-08-12T04:05:39.194Z,1012.80
2023-08-12T04:06:39.209Z,1012.83
2023-08-12T04:07:39.230Z,1012.83
2023-08-12T04:08:39.248Z,1012.79
2023-08-12T04:09:39.275Z,1012.80
2023-08-12T04:10:39.289Z,1012.81
2023-08-12T04:11:39.310Z,1012.83
2023-08-12T04:12:39.327Z,1012.86
2023-08-12T04:13:39.352Z,1012.79
2023-08-12T04:14:39.366Z,1012.80
2023-08-12T04:15:39.389Z,1012.77
2023-08-12T04:16:39.446Z,1012.82
2023-08-12T04:17:39.473Z,1012.80
2023-08-12T04:18:39.442Z,1012.80
2023-08-12T04:19:39.464Z,1012.77
2023-08-12T04:20:39.494Z,1012.75
2023-08-12T04:21:39.501Z,1012.78
2023-08-12T04:22:39.521Z,1012.73
2023-08-12T04:23:39.534Z,1012.77
2023-08-12T04:24:39.557Z,1012.78
2023-08-12T04:25:39.576Z,1012.78
2023-08-12T04:26:39.602Z,1012.79
2023-08-12T04:27:39.615Z,1012.81
2023-08-12T04:28:39.641Z,1012.78
2023-08-12T04:29:39.656Z,1012.81
2023-08-12T04:30:39.708Z,1012.79
2023-08-12T04:31:39.695Z,1012.82
2023-08-12T04:32:39.790Z,1012.83
2023-08-12T04:33:39.740Z,1012.84
2023-08-12T04:34:39.753Z,1012.85
2023-08-12T04:35:39.770Z,1012.84
2023-08-12T04:36:40.933Z,1012.82
2023-08-12T04:37:39.808Z,1012.78
2023-08-12T04:38:39.830Z,1012.83
2023-08-12T04:39:39.862Z,1012.78
2023-08-12T04:40:39.932Z,1012.81
2023-08-12T04:41:39.888Z,1012.83
2023-08-12T04:42:39.909Z,1012.81
2023-08-12T04:43:39.950Z,1012.82
2023-08-12T04:44:39.953Z,1012.82
2023-08-12T04:45:39.982Z,1012.81
2023-08-12T04:46:40.054Z,1012.80
2023-08-12T04:47:40.029Z,1012.80
2023-08-12T04:48:40.022Z,1012.81
2023-08-12T04:49:40.046Z,1012.80
2023-08-12T04:50:40.072Z,1012.80
2023-08-12T04:51:40.085Z,1012.73
2023-08-12T04:52:40.099Z,1012.80
2023-08-12T04:53:40.120Z,1012.77
2023-08-12T04:54:40.140Z,1012.74
2023-08-12T04:55:40.177Z,1012.76
2023-08-12T04:56:40.181Z,1012.78
2023-08-12T04:57:40.205Z,1012.76
2023-08-12T04:58:40.221Z,1012.73
2023-08-12T04:59:40.240Z,1012.73
2023-08-12T05:00:40.263Z,1012.71
2023-08-12T05:01:50.820Z,1012.70
2023-08-12T05:02:40.380Z,1012.70
2023-08-12T05:03:40.339Z,1012.72
2023-08-12T05:04:40.373Z,1012.70
2023-08-12T05:05:40.362Z,1012.68
2023-08-12T05:06:40.376Z,1012.75
2023-08-12T05:07:41.155Z,1012.69
2023-08-12T05:08:40.471Z,1012.72
2023-08-12T05:09:40.438Z,1012.72
2023-08-12T05:10:40.461Z,1012.70
2023-08-12T05:11:40.479Z,1012.66
2023-08-12T05:12:40.503Z,1012.66
2023-08-12T05:13:40.519Z,1012.65
2023-08-12T05:14:40.539Z,1012.68
2023-08-12T05:15:40.564Z,1012.60
2023-08-12T05:16:40.633Z,1012.63
2023-08-12T05:17:40.660Z,1012.65
2023-08-12T05:18:40.641Z,1012.58
2023-08-12T05:19:40.640Z,1012.59
2023-08-12T05:20:40.920Z,1012.64
2023-08-12T05:21:40.680Z,1012.64
2023-08-12T05:22:40.707Z,1012.65
2023-08-12T05:23:40.752Z,1012.63
2023-08-12T05:24:40.762Z,1012.63
2023-08-12T05:25:40.767Z,1012.63
2023-08-12T05:26:40.788Z,1012.62
2023-08-12T05:27:40.806Z,1012.59
2023-08-12T05:28:40.832Z,1012.58
2023-08-12T05:29:40.850Z,1012.55
2023-08-12T05:30:40.869Z,1012.60
2023-08-12T05:31:40.907Z,1012.57
2023-08-12T05:32:40.982Z,1012.57
2023-08-12T05:33:41.010Z,1012.52
2023-08-12T05:34:40.952Z,1012.55
2023-08-12T05:35:40.979Z,1012.56
2023-08-12T05:36:41.013Z,1012.56
2023-08-12T05:37:41.019Z,1012.54
2023-08-12T05:38:41.041Z,1012.55
2023-08-12T05:39:41.062Z,1012.53
2023-08-12T05:40:41.086Z,1012.56
2023-08-12T05:41:41.104Z,1012.54
2023-08-12T05:42:41.135Z,1012.51
2023-08-12T05:43:41.149Z,1012.54
2023-08-12T05:44:41.170Z,1012.50
2023-08-12T05:45:41.228Z,1012.48
2023-08-12T05:46:41.213Z,1012.47
2023-08-12T05:47:41.263Z,1012.51
2023-08-12T05:48:41.254Z,1012.47
2023-08-12T05:49:41.280Z,1012.53
2023-08-12T05:50:41.306Z,1012.51
2023-08-12T05:51:41.320Z,1012.54
2023-08-12T05:52:41.390Z,1012.57
2023-08-12T05:53:41.364Z,1012.57
2023-08-12T05:54:41.406Z,1012.59
2023-08-12T05:55:41.408Z,1012.57
2023-08-12T05:56:41.430Z,1012.57
2023-08-12T05:57:41.453Z,1012.56
2023-08-12T05:58:41.472Z,1012.59
2023-08-12T05:59:41.500Z,1012.59
2023-08-12T06:00:41.524Z,1012.58
2023-08-12T06:01:41.644Z,1012.57
2023-08-12T06:02:41.664Z,1012.57
2023-08-12T06:03:41.615Z,1012.57
2023-08-12T06:04:41.608Z,1012.56
2023-08-12T06:05:41.629Z,1012.55
2023-08-12T06:06:41.650Z,1012.58
2023-08-12T06:07:41.673Z,1012.53
2023-08-12T06:08:41.693Z,1012.58
2023-08-12T06:09:41.720Z,1012.60
2023-08-12T06:10:41.738Z,1012.56
2023-08-12T06:11:41.764Z,1012.57
2023-08-12T06:12:41.784Z,1012.61
2023-08-12T06:13:41.814Z,1012.62
2023-08-12T06:14:41.830Z,1012.61
2023-08-12T06:15:41.881Z,1012.58
2023-08-12T06:16:41.881Z,1012.61
2023-08-12T06:17:41.918Z,1012.61
2023-08-12T06:18:41.917Z,1012.59
2023-08-12T06:19:41.953Z,1012.62
2023-08-12T06:20:41.973Z,1012.62
2023-08-12T06:21:41.991Z,1012.61
2023-08-12T06:22:42.013Z,1012.60
2023-08-12T06:23:42.035Z,1012.59
2023-08-12T06:24:42.070Z,1012.60
2023-08-12T06:25:42.082Z,1012.60
2023-08-12T06:26:42.121Z,1012.62
2023-08-12T06:27:42.136Z,1012.64
2023-08-12T06:28:42.152Z,1012.63
2023-08-12T06:29:42.180Z,1012.63
2023-08-12T06:30:42.200Z,1012.61
2023-08-12T06:31:42.262Z,1012.61
2023-08-12T06:32:42.303Z,1012.61
2023-08-12T06:33:42.271Z,1012.56
2023-08-12T06:34:42.298Z,1012.57
2023-08-12T06:35:42.320Z,1012.56
2023-08-12T06:36:42.340Z,1012.56
2023-08-12T06:37:42.370Z,1012.53
2023-08-12T06:38:42.393Z,1012.53
2023-08-12T06:39:42.419Z,1012.50
2023-08-12T06:40:42.440Z,1012.54
2023-08-12T06:41:42.460Z,1012.52
2023-08-12T06:42:42.485Z,1012.55
2023-08-12T06:43:42.517Z,1012.52
2023-08-12T06:44:42.539Z,1012.50
2023-08-12T06:45:42.573Z,1012.48
2023-08-12T06:46:42.583Z,1012.50
2023-08-12T06:47:42.642Z,1012.51
2023-08-12T06:48:42.656Z,1012.52
2023-08-12T06:49:42.653Z,1012.51
2023-08-12T06:50:42.678Z,1012.53
2023-08-12T06:51:42.703Z,1012.52
2023-08-12T06:52:42.729Z,1012.53
2023-08-12T06:53:42.752Z,1012.51
2023-08-12T06:54:42.771Z,1012.47
2023-08-12T06:55:42.798Z,1012.50
2023-08-12T06:56:42.824Z,1012.47
2023-08-12T06:57:42.846Z,1012.43
2023-08-12T06:58:42.880Z,1012.41
2023-08-12T06:59:42.904Z,1012.43
2023-08-12T07:00:42.918Z,1012.40
2023-08-12T07:01:42.966Z,1012.42
2023-08-12T07:02:43.002Z,1012.42
2023-08-12T07:03:43.172Z,1012.36
2023-08-12T07:04:43.016Z,1012.39
2023-08-12T07:05:43.038Z,1012.39
2023-08-12T07:06:43.063Z,1012.37
2023-08-12T07:07:43.088Z,1012.40
2023-08-12T07:08:43.123Z,1012.38
2023-08-12T07:09:43.137Z,1012.33
2023-08-12T07:10:43.159Z,1012.36
2023-08-12T07:11:43.185Z,1012.39
2023-08-12T07:12:43.212Z,1012.39
2023-08-12T07:13:43.235Z,1012.42
2023-08-12T07:14:43.270Z,1012.42
2023-08-12T07:15:43.343Z,1012.37
2023-08-12T07:16:43.315Z,1012.34
2023-08-12T07:17:43.356Z,1012.39
2023-08-12T07:18:43.359Z,1012.42
2023-08-12T07:19:43.383Z,1012.39
2023-08-12T07:20:43.427Z,1012.42
2023-08-12T07:21:43.437Z,1012.41
2023-08-12T07:22:43.465Z,1012.39
2023-08-12T07:23:51.456Z,1012.41
2023-08-12T07:24:43.512Z,1012.39
2023-08-12T07:25:43.541Z,1012.36
2023-08-12T07:26:43.566Z,1012.34
2023-08-12T07:27:43.597Z,1012.29
2023-08-12T07:28:43.619Z,1012.31
2023-08-12T07:29:43.654Z,1012.29
2023-08-12T07:30:43.711Z,1012.29
2023-08-12T07:31:43.693Z,1012.26
2023-08-12T07:32:43.736Z,1012.32
2023-08-12T07:33:43.759Z,1012.35
2023-08-12T07:34:43.791Z,1012.39
2023-08-12T07:35:43.798Z,1012.39
2023-08-12T07:36:43.846Z,1012.41
2023-08-12T07:37:43.857Z,1012.41
2023-08-12T07:38:43.888Z,1012.41
2023-08-12T07:39:43.908Z,1012.42
2023-08-12T07:40:43.944Z,1012.39
2023-08-12T07:41:43.955Z,1012.38
2023-08-12T07:42:43.982Z,1012.37
2023-08-12T07:43:44.047Z,1012.37
2023-08-12T07:44:44.042Z,1012.39
2023-08-12T07:45:45.911Z,1012.38
2023-08-12T07:46:44.138Z,1012.37
2023-08-12T07:47:44.147Z,1012.39
2023-08-12T07:48:44.152Z,1012.37
2023-08-12T07:49:44.167Z,1012.39
2023-08-12T07:50:44.191Z,1012.36
2023-08-12T07:51:44.230Z,1012.36
2023-08-12T07:52:44.253Z,1012.37
2023-08-12T07:53:44.289Z,1012.31
2023-08-12T07:54:44.304Z,1012.31
2023-08-12T07:55:44.327Z,1012.31
2023-08-12T07:56:44.354Z,1012.24
2023-08-12T07:57:44.378Z,1012.24
2023-08-12T07:58:44.416Z,1012.27
2023-08-12T07:59:44.434Z,1012.30
2023-08-12T08:00:44.461Z,1012.30
2023-08-12T08:01:44.510Z,1012.29
2023-08-12T08:02:44.533Z,1012.32
2023-08-12T08:03:44.545Z,1012.30
2023-08-12T08:04:44.588Z,1012.31
2023-08-12T08:05:44.595Z,1012.28
2023-08-12T08:06:44.644Z,1012.29
2023-08-12T08:07:44.652Z,1012.31
2023-08-12T08:08:44.674Z,1012.28
2023-08-12T08:09:44.707Z,1012.31
2023-08-12T08:10:44.741Z,1012.30
2023-08-12T08:11:44.834Z,1012.27
2023-08-12T08:12:44.803Z,1012.32
2023-08-12T08:13:44.811Z,1012.30
2023-08-12T08:14:44.830Z,1012.24
2023-08-12T08:15:44.869Z,1012.23
2023-08-12T08:16:44.959Z,1012.23
2023-08-12T08:17:44.997Z,1012.19
2023-08-12T08:18:44.993Z,1012.17
2023-08-12T08:19:44.969Z,1012.09
2023-08-12T08:20:46.081Z,1012.12
2023-08-12T08:21:45.025Z,1012.13
2023-08-12T08:22:45.049Z,1012.14
2023-08-12T08:23:45.084Z,1012.08
2023-08-12T08:24:45.096Z,1012.10
2023-08-12T08:25:45.137Z,1012.12
2023-08-12T08:26:45.155Z,1012.13
2023-08-12T08:27:45.174Z,1012.12
2023-08-12T08:28:45.203Z,1012.16
2023-08-12T08:29:45.233Z,1012.13
2023-08-12T08:30:45.297Z,1012.12
2023-08-12T08:31:45.286Z,1012.17
2023-08-12T08:32:45.351Z,1012.16
2023-08-12T08:33:45.651Z,1012.18
2023-08-12T08:34:45.361Z,1012.21
2023-08-12T08:35:45.392Z,1012.21
2023-08-12T08:36:45.410Z,1012.17
2023-08-12T08:37:45.434Z,1012.17
2023-08-12T08:38:45.465Z,1012.21
2023-08-12T08:39:45.488Z,1012.16
2023-08-12T08:40:45.532Z,1012.18
2023-08-12T08:41:45.570Z,1012.21
2023-08-12T08:42:45.563Z,1012.18
2023-08-12T08:43:45.590Z,1012.26
2023-08-12T08:44:45.613Z,1012.29
2023-08-12T08:45:45.640Z,1012.30
2023-08-12T08:46:45.663Z,1012.31
2023-08-12T08:47:45.750Z,1012.30
2023-08-12T08:48:45.726Z,1012.32
2023-08-12T08:49:45.745Z,1012.31
2023-08-12T08:50:45.782Z,1012.26
2023-08-12T08:51:45.793Z,1012.22
2023-08-12T08:52:45.817Z,1012.17
2023-08-12T08:53:45.884Z,1012.16
2023-08-12T08:55:45.894Z,1012.19
2023-08-12T08:56:53.580Z,1012.22
2023-08-12T08:57:47.831Z,1012.23
2023-08-12T08:58:45.972Z,1012.21
2023-08-12T08:59:46.017Z,1012.20
2023-08-12T09:00:46.019Z,1012.22
2023-08-12T09:01:46.067Z,1012.20
2023-08-12T09:02:46.074Z,1012.19
2023-08-12T09:03:46.097Z,1012.17
2023-08-12T09:04:46.126Z,1012.13
2023-08-12T09:05:46.144Z,1012.14
2023-08-12T09:06:46.186Z,1012.10
2023-08-12T09:07:46.249Z,1012.09
2023-08-12T09:08:46.219Z,1012.04
2023-08-12T09:09:46.250Z,1012.00
2023-08-12T09:10:46.273Z,1012.08
2023-08-12T09:11:46.296Z,1012.12
2023-08-12T09:12:46.332Z,1012.25
2023-08-12T09:13:46.346Z,1012.29
2023-08-12T09:14:46.375Z,1012.32
2023-08-12T09:15:46.400Z,1012.35
2023-08-12T09:16:46.435Z,1012.33
2023-08-12T09:17:46.575Z,1012.31
2023-08-12T09:18:46.475Z,1012.28
2023-08-12T09:19:46.500Z,1012.28
2023-08-12T09:20:46.524Z,1012.29
2023-08-12T09:21:46.547Z,1012.24
2023-08-12T09:22:46.575Z,1012.25
2023-08-12T09:23:46.599Z,1012.22
2023-08-12T09:24:46.628Z,1012.27
2023-08-12T09:25:46.648Z,1012.23
2023-08-12T09:26:46.674Z,1012.21
2023-08-12T09:27:46.703Z,1012.22
2023-08-12T09:28:46.787Z,1012.23
2023-08-12T09:29:46.763Z,1012.26
2023-08-12T09:30:46.776Z,1012.25
2023-08-12T09:31:46.824Z,1012.20
2023-08-12T09:32:46.839Z,1012.16
2023-08-12T09:33:46.855Z,1012.14
2023-08-12T09:34:46.888Z,1012.03
2023-08-12T09:35:46.912Z,1011.96
2023-08-12T09:36:46.939Z,1011.96
2023-08-12T09:37:46.961Z,1011.99
2023-08-12T09:38:46.988Z,1011.98
2023-08-12T09:39:47.018Z,1011.94
2023-08-12T09:40:47.041Z,1012.00
2023-08-12T09:41:47.066Z,1012.00
2023-08-12T09:42:47.093Z,1011.99
2023-08-12T09:43:47.119Z,1011.99
2023-08-12T09:44:47.213Z,1012.02
2023-08-12T09:45:47.188Z,1012.05
2023-08-12T09:46:47.196Z,1012.10
2023-08-12T09:47:47.230Z,1012.09
2023-08-12T09:48:47.257Z,1012.12
2023-08-12T09:49:47.276Z,1012.15
2023-08-12T09:50:47.308Z,1012.21
2023-08-12T09:51:47.358Z,1012.20
2023-08-12T09:52:47.359Z,1012.21
2023-08-12T09:53:47.382Z,1012.24
2023-08-12T09:54:47.407Z,1012.21
2023-08-12T09:55:47.450Z,1012.25
2023-08-12T09:56:47.461Z,1012.22
2023-08-12T09:57:47.492Z,1012.18
2023-08-12T09:58:47.513Z,1012.18
2023-08-12T09:59:47.710Z,1012.11
2023-08-12T10:00:47.571Z,1012.12
2023-08-12T10:01:47.657Z,1012.11
2023-08-12T10:02:47.665Z,1012.10
2023-08-12T10:03:47.681Z,1012.05
2023-08-12T10:04:47.678Z,1012.02
2023-08-12T10:05:47.706Z,1012.00
2023-08-12T10:06:47.764Z,1011.92
2023-08-12T10:07:47.760Z,1011.91
2023-08-12T10:08:47.788Z,1011.87
2023-08-12T10:09:47.854Z,1011.91
2023-08-12T10:10:56.066Z,1011.84
2023-08-12T10:11:47.871Z,1011.81
2023-08-12T10:12:47.897Z,1011.74
2023-08-12T10:13:47.925Z,1011.74
2023-08-12T10:14:47.953Z,1011.79
2023-08-12T10:15:48.033Z,1011.75
2023-08-12T10:16:48.020Z,1011.78
2023-08-12T10:17:48.063Z,1011.84
2023-08-12T10:18:48.059Z,1011.83
2023-08-12T10:19:48.085Z,1011.85
2023-08-12T10:20:48.118Z,1011.85
2023-08-12T10:21:48.146Z,1011.83
2023-08-12T10:22:48.174Z,1011.76
2023-08-12T10:23:48.221Z,1011.74
2023-08-12T10:24:48.242Z,1011.66
2023-08-12T10:25:48.260Z,1011.68
2023-08-12T10:26:48.281Z,1011.68
2023-08-12T10:27:48.331Z,1011.70
2023-08-12T10:28:49.585Z,1011.68
2023-08-12T10:29:48.359Z,1011.66
2023-08-12T10:30:48.387Z,1011.64
2023-08-12T10:31:48.410Z,1011.63
2023-08-12T10:32:48.464Z,1011.60
2023-08-12T10:33:48.470Z,1011.56
2023-08-12T10:34:48.496Z,1011.60
2023-08-12T10:35:48.530Z,1011.54
2023-08-12T10:37:00.248Z,1011.59
2023-08-12T10:37:48.578Z,1011.55
2023-08-12T10:38:48.616Z,1011.53
2023-08-12T10:39:48.636Z,1011.54
2023-08-12T10:40:48.676Z,1011.57
2023-08-12T10:41:48.691Z,1011.62
2023-08-12T10:42:48.720Z,1011.66
2023-08-12T10:43:48.745Z,1011.69
2023-08-12T10:44:48.808Z,1011.74
2023-08-12T10:45:48.804Z,1011.76
2023-08-12T10:46:48.885Z,1011.80
2023-08-12T10:47:48.994Z,1011.87
2023-08-12T10:48:48.885Z,1011.89
2023-08-12T10:49:48.919Z,1011.93
2023-08-12T10:50:48.945Z,1011.87
2023-08-12T10:51:48.964Z,1011.82
2023-08-12T10:52:48.998Z,1011.78
2023-08-12T10:53:49.023Z,1011.76
2023-08-12T10:54:49.052Z,1011.73
2023-08-12T10:55:49.080Z,1011.71
2023-08-12T10:56:49.110Z,1011.73
2023-08-12T10:57:49.138Z,1011.66
2023-08-12T10:58:49.168Z,1011.62
2023-08-12T10:59:49.196Z,1011.59
2023-08-12T11:00:49.320Z,1011.59
2023-08-12T11:01:49.261Z,1011.56
2023-08-12T11:02:49.321Z,1011.54
2023-08-12T11:03:49.374Z,1011.56
2023-08-12T11:04:49.338Z,1011.59
2023-08-12T11:05:49.368Z,1011.63
2023-08-12T11:06:49.392Z,1011.60
2023-08-12T11:07:49.433Z,1011.64
2023-08-12T11:08:49.453Z,1011.64
2023-08-12T11:09:49.482Z,1011.66
2023-08-12T11:10:49.506Z,1011.64
2023-08-12T11:11:49.542Z,1011.62
2023-08-12T11:12:49.582Z,1011.56
2023-08-12T11:13:49.603Z,1011.58
2023-08-12T11:14:49.633Z,1011.55
2023-08-12T11:15:49.653Z,1011.51
2023-08-12T11:16:51.204Z,1011.51
2023-08-12T11:17:49.738Z,1011.54
2023-08-12T11:18:49.741Z,1011.47
2023-08-12T11:19:49.775Z,1011.49
2023-08-12T11:20:49.811Z,1011.54
2023-08-12T11:21:49.833Z,1011.47
2023-08-12T11:22:49.855Z,1011.48
2023-08-12T11:23:49.885Z,1011.51
2023-08-12T11:24:49.914Z,1011.53
2023-08-12T11:25:49.941Z,1011.59
2023-08-12T11:26:49.972Z,1011.60
2023-08-12T11:27:50.008Z,1011.67
2023-08-12T11:28:50.029Z,1011.65
2023-08-12T11:29:50.056Z,1011.52
2023-08-12T11:30:50.137Z,1011.55
2023-08-12T11:31:50.114Z,1011.56
2023-08-12T11:32:50.172Z,1011.59
2023-08-12T11:33:50.175Z,1011.61
2023-08-12T11:34:50.196Z,1011.63
2023-08-12T11:35:50.223Z,1011.67
2023-08-12T11:36:50.252Z,1011.65
2023-08-12T11:37:50.309Z,1011.64
2023-08-12T11:38:50.303Z,1011.68
2023-08-12T11:39:50.333Z,1011.70
2023-08-12T11:40:50.362Z,1011.68
2023-08-12T11:41:50.387Z,1011.67
2023-08-12T11:42:50.414Z,1011.69
2023-08-12T11:43:50.460Z,1011.68
2023-08-12T11:44:50.469Z,1011.71
2023-08-12T11:45:50.497Z,1011.72
2023-08-12T11:46:50.527Z,1011.69
2023-08-12T11:47:50.575Z,1011.70
2023-08-12T11:48:51.921Z,1011.68
2023-08-12T11:49:50.604Z,1011.73
2023-08-12T11:50:50.631Z,1011.79
2023-08-12T11:51:50.658Z,1011.81
2023-08-12T11:52:50.686Z,1011.84
2023-08-12T11:53:50.712Z,1011.82
2023-08-12T11:54:50.739Z,1011.86
2023-08-12T11:55:50.767Z,1011.88
2023-08-12T11:56:50.803Z,1011.87
2023-08-12T11:57:50.826Z,1011.90
2023-08-12T11:58:53.684Z,1011.90
2023-08-12T11:59:50.874Z,1011.89
2023-08-12T12:00:50.909Z,1011.81
2023-08-12T12:01:51.043Z,1011.91
2023-08-12T12:02:51.069Z,1011.83
2023-08-12T12:03:51.034Z,1011.79
2023-08-12T12:04:51.012Z,1011.76
2023-08-12T12:05:51.048Z,1011.72
2023-08-12T12:06:51.098Z,1011.73